createdAt,value
2023-01-21T00:03:53.268Z,0.76
2023-01-21T00:08:45.998Z,0.77
2023-01-21T00:13:38.776Z,0.78
2023-01-21T00:18:31.821Z,0.77
2023-01-21T00:23:24.545Z,0.76
2023-01-21T00:28:17.257Z,0.77
2023-01-21T00:33:09.922Z,0.79
2023-01-21T00:38:02.614Z,0.80
2023-01-21T00:42:55.303Z,0.80
2023-01-21T00:47:48.671Z,0.82
2023-01-21T00:52:41.519Z,0.84
2023-01-21T00:57:34.759Z,0.83
2023-01-21T01:02:27.606Z,0.83
2023-01-21T01:07:20.331Z,0.83
2023-01-21T01:12:13.055Z,0.79
2023-01-21T01:17:06.001Z,0.74
2023-01-21T01:21:58.709Z,0.66
2023-01-21T01:26:51.412Z,0.60
2023-01-21T01:31:44.725Z,0.53
2023-01-21T01:36:37.403Z,0.47
2023-01-21T01:41:30.882Z,0.44
2023-01-21T01:46:24.221Z,0.40
2023-01-21T01:51:19.958Z,0.38
2023-01-21T01:56:13.353Z,0.35
2023-01-21T02:01:06.125Z,0.33
2023-01-21T02:05:59.214Z,0.31
2023-01-21T02:10:54.056Z,0.29
2023-01-21T02:15:46.842Z,0.28
2023-01-21T02:21:07.724Z,0.27
2023-01-21T02:26:20.869Z,0.26
2023-01-21T02:31:34.781Z,0.26
2023-01-21T02:36:27.499Z,0.27
2023-01-21T02:41:20.148Z,0.26
2023-01-21T02:46:39.008Z,0.26
2023-01-21T02:51:31.699Z,0.25
2023-01-21T02:56:26.190Z,0.24
2023-01-21T03:01:35.001Z,0.23
2023-01-21T03:06:49.152Z,0.23
2023-01-21T03:11:45.568Z,0.22
2023-01-21T03:16:59.724Z,0.20
2023-01-21T03:21:53.301Z,0.18
2023-01-21T03:26:49.025Z,0.17
2023-01-21T03:31:43.885Z,0.17
2023-01-21T03:36:51.339Z,0.17
2023-01-21T03:41:44.093Z,0.18
2023-01-21T03:46:36.737Z,0.18
2023-01-21T03:51:37.412Z,0.17
2023-01-21T03:56:30.426Z,0.18
2023-01-21T04:01:23.282Z,0.18
2023-01-21T04:06:16.973Z,0.19
2023-01-21T04:11:09.677Z,0.19
2023-01-21T04:16:02.426Z,0.20
2023-01-21T04:20:55.137Z,0.20
2023-01-21T04:25:51.532Z,0.21
2023-01-21T04:30:44.292Z,0.21
2023-01-21T04:35:37.384Z,0.21
2023-01-21T04:40:30.358Z,0.22
2023-01-21T04:45:23.037Z,0.22
2023-01-21T04:50:16.601Z,0.21
2023-01-21T04:55:10.498Z,0.22
2023-01-21T05:00:05.536Z,0.21
2023-01-21T05:04:58.259Z,0.19
2023-01-21T05:09:51.019Z,0.20
2023-01-21T05:14:43.698Z,0.20
2023-01-21T05:19:36.383Z,0.20
2023-01-21T05:24:29.146Z,0.22
2023-01-21T05:29:22.484Z,0.23
2023-01-21T05:34:15.185Z,0.23
2023-01-21T05:39:07.872Z,0.23
2023-01-21T05:44:00.545Z,0.24
2023-01-21T05:48:53.262Z,0.22
2023-01-21T05:53:46.490Z,0.23
2023-01-21T05:58:39.249Z,0.23
2023-01-21T06:03:32.015Z,0.23
2023-01-21T06:08:24.748Z,0.23
2023-01-21T06:13:17.964Z,0.23
2023-01-21T06:18:10.894Z,0.23
2023-01-21T06:23:03.615Z,0.23
2023-01-21T06:27:56.762Z,0.23
2023-01-21T06:32:49.398Z,0.23
2023-01-21T06:37:42.101Z,0.23
2023-01-21T06:42:34.822Z,0.22
2023-01-21T06:47:27.503Z,0.23
2023-01-21T06:52:20.177Z,0.23
2023-01-21T06:57:13.044Z,0.23
2023-01-21T07:02:05.752Z,0.21
2023-01-21T07:06:58.449Z,0.21
2023-01-21T07:11:51.186Z,0.21
2023-01-21T07:16:43.952Z,0.24
2023-01-21T07:21:36.654Z,0.26
2023-01-21T07:26:29.843Z,0.27
2023-01-21T07:31:22.703Z,0.30
2023-01-21T07:36:15.543Z,0.33
2023-01-21T07:41:08.563Z,0.35
2023-01-21T07:46:01.472Z,0.37
2023-01-21T07:50:57.491Z,0.40
2023-01-21T07:55:50.181Z,0.43
2023-01-21T08:00:42.862Z,0.46
2023-01-21T08:05:35.677Z,0.47
2023-01-21T08:10:28.401Z,0.50
2023-01-21T08:15:21.142Z,0.54
2023-01-21T08:20:14.075Z,0.57
2023-01-21T08:25:07.505Z,0.60
2023-01-21T08:30:00.206Z,0.63
2023-01-21T08:34:52.943Z,0.66
2023-01-21T08:39:45.630Z,0.70
2023-01-21T08:44:38.341Z,0.77
2023-01-21T08:49:31.061Z,0.81
2023-01-21T08:54:24.209Z,0.82
2023-01-21T08:59:17.064Z,0.79
2023-01-21T09:04:11.065Z,0.79
2023-01-21T09:09:03.776Z,0.78
2023-01-21T09:13:58.053Z,0.77
2023-01-21T09:18:51.132Z,0.79
2023-01-21T09:23:44.558Z,0.78
2023-01-21T09:28:39.097Z,0.79
2023-01-21T09:33:32.584Z,0.79
2023-01-21T09:38:25.982Z,0.79
2023-01-21T09:43:25.311Z,0.80
2023-01-21T09:48:22.177Z,0.86
2023-01-21T09:53:33.664Z,0.91
2023-01-21T09:58:48.388Z,0.94
2023-01-21T10:04:00.590Z,0.99
2023-01-21T10:09:02.224Z,1.04
2023-01-21T10:14:04.253Z,1.06
2023-01-21T10:18:58.732Z,1.08
2023-01-21T10:23:53.515Z,1.08
2023-01-21T10:28:51.808Z,1.07
2023-01-21T10:33:44.512Z,1.05
2023-01-21T10:38:43.019Z,1.06
2023-01-21T10:43:47.810Z,1.09
2023-01-21T10:49:05.422Z,1.08
2023-01-21T10:54:01.867Z,1.07
2023-01-21T10:59:00.353Z,1.05
2023-01-21T11:03:58.329Z,1.04
2023-01-21T11:08:53.976Z,1.04
2023-01-21T11:13:46.715Z,1.06
2023-01-21T11:18:41.118Z,1.07
2023-01-21T11:23:35.490Z,1.08
2023-01-21T11:28:30.290Z,1.08
2023-01-21T11:33:22.971Z,1.08
2023-01-21T11:38:24.442Z,1.10
2023-01-21T11:43:33.843Z,1.12
2023-01-21T11:48:26.636Z,1.11
2023-01-21T11:53:20.168Z,1.10
2023-01-21T11:58:18.896Z,1.12
2023-01-21T12:03:16.909Z,1.14
2023-01-21T12:08:19.977Z,1.19
2023-01-21T12:13:18.892Z,1.23
2023-01-21T12:18:30.623Z,1.23
2023-01-21T12:23:41.527Z,1.25
2023-01-21T12:28:57.848Z,1.26
2023-01-21T12:34:03.405Z,1.29
2023-01-21T12:39:07.685Z,1.31
2023-01-21T12:44:18.913Z,1.30
2023-01-21T12:49:24.999Z,1.31
2023-01-21T12:54:36.579Z,1.33
2023-01-21T12:59:34.303Z,1.34
2023-01-21T13:04:36.317Z,1.36
2023-01-21T13:09:32.074Z,1.40
2023-01-21T13:14:42.295Z,1.46
2023-01-21T13:19:35.794Z,1.48
2023-01-21T13:24:47.008Z,1.49
2023-01-21T13:29:46.911Z,1.50
2023-01-21T13:35:07.713Z,1.49
2023-01-21T13:40:12.247Z,1.48
2023-01-21T13:45:11.235Z,1.48
2023-01-21T13:50:07.337Z,1.49
2023-01-21T13:55:09.326Z,1.49
2023-01-21T14:00:05.217Z,1.49
2023-01-21T14:05:07.044Z,1.49
2023-01-21T14:10:18.152Z,1.49
2023-01-21T14:15:20.422Z,1.48
2023-01-21T14:20:28.486Z,1.48
2023-01-21T14:25:40.052Z,1.48
2023-01-21T14:30:40.860Z,1.49
2023-01-21T14:35:52.099Z,1.48
2023-01-21T14:40:51.717Z,1.47
2023-01-21T14:45:50.720Z,1.48
2023-01-21T14:50:53.817Z,1.47
2023-01-21T14:55:46.904Z,1.46
2023-01-21T15:00:46.087Z,1.47
2023-01-21T15:05:38.961Z,1.46
2023-01-21T15:10:34.777Z,1.46
2023-01-21T15:15:27.534Z,1.44
2023-01-21T15:20:39.728Z,1.45
2023-01-21T15:25:34.443Z,1.47
2023-01-21T15:30:29.582Z,1.46
2023-01-21T15:35:32.777Z,1.46
2023-01-21T15:40:27.172Z,1.46
2023-01-21T15:45:24.960Z,1.45
2023-01-21T15:50:47.220Z,1.45
2023-01-21T15:55:50.465Z,1.46
2023-01-21T16:00:58.401Z,1.46
2023-01-21T16:06:08.938Z,1.46
2023-01-21T16:11:01.603Z,1.47
2023-01-21T16:16:14.847Z,1.48
2023-01-21T16:21:07.819Z,1.47
2023-01-21T16:26:00.512Z,1.48
2023-01-21T16:30:57.592Z,1.48
2023-01-21T16:35:51.708Z,1.49
2023-01-21T16:40:44.553Z,1.49
2023-01-21T16:45:37.665Z,1.50
2023-01-21T16:50:32.141Z,1.50
2023-01-21T16:55:26.777Z,1.50
2023-01-21T17:00:25.757Z,1.51
2023-01-21T17:05:18.806Z,1.51
2023-01-21T17:10:23.250Z,1.51
2023-01-21T17:15:38.519Z,1.52
2023-01-21T17:20:43.833Z,1.52
2023-01-21T17:25:37.763Z,1.52
2023-01-21T17:30:30.510Z,1.55
2023-01-21T17:35:24.007Z,1.56
2023-01-21T17:40:32.035Z,1.56
2023-01-21T17:45:30.649Z,1.56
2023-01-21T17:50:23.341Z,1.56
2023-01-21T17:55:27.321Z,1.56
2023-01-21T18:00:29.150Z,1.58
2023-01-21T18:05:22.070Z,1.59
2023-01-21T18:10:16.109Z,1.58
2023-01-21T18:15:10.369Z,1.59
2023-01-21T18:20:03.187Z,1.58
2023-01-21T18:24:56.368Z,1.58
2023-01-21T18:29:49.273Z,1.58
2023-01-21T18:34:42.102Z,1.57
2023-01-21T18:39:34.809Z,1.56
2023-01-21T18:44:27.525Z,1.56
2023-01-21T18:49:21.261Z,1.56
2023-01-21T18:54:18.167Z,1.57
2023-01-21T18:59:13.079Z,1.57
2023-01-21T19:04:09.632Z,1.56
2023-01-21T19:09:02.633Z,1.56
2023-01-21T19:13:55.364Z,1.56
2023-01-21T19:18:48.457Z,1.56
2023-01-21T19:23:41.301Z,1.55
2023-01-21T19:28:34.774Z,1.56
2023-01-21T19:33:27.777Z,1.56
2023-01-21T19:38:21.999Z,1.56
2023-01-21T19:43:15.821Z,1.55
2023-01-21T19:48:13.560Z,1.56
2023-01-21T19:53:06.534Z,1.56
2023-01-21T19:58:02.214Z,1.55
2023-01-21T20:02:55.219Z,1.54
2023-01-21T20:07:49.160Z,1.55
2023-01-21T20:12:43.947Z,1.55
2023-01-21T20:17:38.749Z,1.55
2023-01-21T20:22:31.471Z,1.54
2023-01-21T20:27:24.180Z,1.54
2023-01-21T20:32:16.860Z,1.53
2023-01-21T20:37:11.016Z,1.53
2023-01-21T20:42:03.700Z,1.53
2023-01-21T20:46:57.049Z,1.53
2023-01-21T20:51:49.717Z,1.53
2023-01-21T20:56:42.432Z,1.53
2023-01-21T21:01:39.434Z,1.52
2023-01-21T21:06:33.769Z,1.53
2023-01-21T21:11:28.983Z,1.52
2023-01-21T21:16:27.895Z,1.53
2023-01-21T21:21:23.696Z,1.53
2023-01-21T21:26:18.569Z,1.53
2023-01-21T21:31:13.526Z,1.52
2023-01-21T21:36:06.451Z,1.52
2023-01-21T21:41:19.133Z,1.51
2023-01-21T21:46:27.208Z,1.51
2023-01-21T21:51:21.741Z,1.51
2023-01-21T21:56:15.990Z,1.50
2023-01-21T22:01:08.765Z,1.49
2023-01-21T22:06:04.044Z,1.48
2023-01-21T22:10:57.805Z,1.47
2023-01-21T22:15:57.376Z,1.46
2023-01-21T22:20:51.976Z,1.45
2023-01-21T22:25:44.654Z,1.44
2023-01-21T22:30:37.415Z,1.44
2023-01-21T22:35:30.332Z,1.43
2023-01-21T22:40:23.093Z,1.42
2023-01-21T22:45:15.930Z,1.42
2023-01-21T22:50:09.522Z,1.41
2023-01-21T22:55:02.192Z,1.41
2023-01-21T22:59:54.872Z,1.40
2023-01-21T23:04:47.593Z,1.40
2023-01-21T23:09:40.333Z,1.40
2023-01-21T23:14:33.116Z,1.40
2023-01-21T23:19:26.671Z,1.40
2023-01-21T23:24:19.708Z,1.39
2023-01-21T23:29:12.391Z,1.38
2023-01-21T23:34:05.098Z,1.38
2023-01-21T23:38:57.751Z,1.39
2023-01-21T23:43:50.631Z,1.39
2023-01-21T23:48:43.655Z,1.38
2023-01-21T23:53:36.379Z,1.38
2023-01-21T23:58:29.050Z,1.37
